Umiat, Alaska
Current Conditions -  °F | °C
As of 8:53 AM on Wednesday 26 Nov 2014 (Local Time) from PAQT Reporting Station
Clear Clear  
Wind Chill: -27°   Ceiling: Unl
Heat Index: -9°   Visibility: 10mi
Dew Point: -13°   Wind: 10mph
Humidity: 83%   Direction: 50°NE
Pressure: 30.64"   Gusts: NA
Location:  69.37°N, 152.13°W
Report Text: PAQT 261753Z AUTO 05009KT 10SM CLR M23/M25 A3064 RMK SLP375 60000 I1000 I6000 T12281250 11172 21239 55001 TSNO VIA AUTODIAL
Loading
Personal Weather Stations






























Interactive Weather Map New forecast layout! Learn more

10-Day Weather Forecast

Advertisements
Track Severe Weather on mobile